sensor_id;sensor_type;location;lat;lon;timestamp;P1;durP1;ratioP1;P2;durP2;ratioP2
791;SDS011;379;49.022;12.148;2022-08-19T00:02:17;28.80;;;25.90;;
791;SDS011;379;49.022;12.148;2022-08-19T00:04:44;27.50;;;25.00;;
791;SDS011;379;49.022;12.148;2022-08-19T00:07:13;27.87;;;25.07;;
791;SDS011;379;49.022;12.148;2022-08-19T00:09:40;31.10;;;28.10;;
791;SDS011;379;49.022;12.148;2022-08-19T00:12:08;30.20;;;27.23;;
791;SDS011;379;49.022;12.148;2022-08-19T00:14:35;29.73;;;26.80;;
791;SDS011;379;49.022;12.148;2022-08-19T00:17:03;30.93;;;27.97;;
791;SDS011;379;49.022;12.148;2022-08-19T00:19:31;32.17;;;29.00;;
791;SDS011;379;49.022;12.148;2022-08-19T00:21:59;31.57;;;28.37;;
791;SDS011;379;49.022;12.148;2022-08-19T00:24:27;30.57;;;27.57;;
791;SDS011;379;49.022;12.148;2022-08-19T00:26:55;30.80;;;28.00;;
791;SDS011;379;49.022;12.148;2022-08-19T00:29:24;30.97;;;28.17;;
791;SDS011;379;49.022;12.148;2022-08-19T00:31:52;30.73;;;28.03;;
791;SDS011;379;49.022;12.148;2022-08-19T00:34:21;30.47;;;27.63;;
791;SDS011;379;49.022;12.148;2022-08-19T00:36:49;28.90;;;26.27;;
791;SDS011;379;49.022;12.148;2022-08-19T00:39:16;31.80;;;28.80;;
791;SDS011;379;49.022;12.148;2022-08-19T00:41:44;28.70;;;26.23;;
791;SDS011;379;49.022;12.148;2022-08-19T00:44:14;30.67;;;27.97;;
791;SDS011;379;49.022;12.148;2022-08-19T00:46:46;31.03;;;28.10;;
791;SDS011;379;49.022;12.148;2022-08-19T00:49:16;30.43;;;27.70;;
791;SDS011;379;49.022;12.148;2022-08-19T00:51:47;30.30;;;27.37;;
791;SDS011;379;49.022;12.148;2022-08-19T00:54:17;31.27;;;28.60;;
791;SDS011;379;49.022;12.148;2022-08-19T00:56:46;28.10;;;25.53;;
791;SDS011;379;49.022;12.148;2022-08-19T00:59:13;27.10;;;24.77;;
791;SDS011;379;49.022;12.148;2022-08-19T01:01:41;30.97;;;28.17;;
791;SDS011;379;49.022;12.148;2022-08-19T01:04:11;31.77;;;28.67;;
791;SDS011;379;49.022;12.148;2022-08-19T01:06:38;33.33;;;30.30;;
791;SDS011;379;49.022;12.148;2022-08-19T01:09:06;32.13;;;29.27;;
791;SDS011;379;49.022;12.148;2022-08-19T01:11:35;32.10;;;28.97;;
791;SDS011;379;49.022;12.148;2022-08-19T01:14:06;31.33;;;28.07;;
791;SDS011;379;49.022;12.148;2022-08-19T01:16:34;29.43;;;26.83;;
791;SDS011;379;49.022;12.148;2022-08-19T01:19:02;30.33;;;27.53;;
791;SDS011;379;49.022;12.148;2022-08-19T01:21:37;30.90;;;28.13;;
791;SDS011;379;49.022;12.148;2022-08-19T01:24:12;28.13;;;25.50;;
791;SDS011;379;49.022;12.148;2022-08-19T01:26:40;29.43;;;26.80;;
791;SDS011;379;49.022;12.148;2022-08-19T01:29:09;35.00;;;31.70;;
791;SDS011;379;49.022;12.148;2022-08-19T01:31:36;29.17;;;26.50;;
791;SDS011;379;49.022;12.148;2022-08-19T01:34:04;29.73;;;26.70;;
791;SDS011;379;49.022;12.148;2022-08-19T01:36:32;28.43;;;25.83;;
791;SDS011;379;49.022;12.148;2022-08-19T01:39:04;31.00;;;28.00;;
791;SDS011;379;49.022;12.148;2022-08-19T01:41:34;29.73;;;27.03;;
791;SDS011;379;49.022;12.148;2022-08-19T01:44:02;29.00;;;26.33;;
791;SDS011;379;49.022;12.148;2022-08-19T01:46:30;26.13;;;23.83;;
791;SDS011;379;49.022;12.148;2022-08-19T01:48:58;28.37;;;25.80;;
791;SDS011;379;49.022;12.148;2022-08-19T01:51:25;30.77;;;28.07;;
791;SDS011;379;49.022;12.148;2022-08-19T01:53:53;29.43;;;26.67;;
791;SDS011;379;49.022;12.148;2022-08-19T01:56:20;30.90;;;28.00;;
791;SDS011;379;49.022;12.148;2022-08-19T01:58:49;31.03;;;28.13;;
791;SDS011;379;49.022;12.148;2022-08-19T02:01:19;29.13;;;26.53;;
791;SDS011;379;49.022;12.148;2022-08-19T02:03:46;31.57;;;28.60;;
791;SDS011;379;49.022;12.148;2022-08-19T02:06:13;29.03;;;26.43;;
791;SDS011;379;49.022;12.148;2022-08-19T02:08:42;31.33;;;28.33;;
791;SDS011;379;49.022;12.148;2022-08-19T02:11:17;32.63;;;29.73;;
791;SDS011;379;49.022;12.148;2022-08-19T02:13:45;31.50;;;28.70;;
791;SDS011;379;49.022;12.148;2022-08-19T02:16:13;31.87;;;28.77;;
791;SDS011;379;49.022;12.148;2022-08-19T02:18:40;35.10;;;31.80;;
791;SDS011;379;49.022;12.148;2022-08-19T02:21:06;33.67;;;30.57;;
791;SDS011;379;49.022;12.148;2022-08-19T02:23:33;36.23;;;32.80;;
791;SDS011;379;49.022;12.148;2022-08-19T02:26:00;32.67;;;29.57;;
791;SDS011;379;49.022;12.148;2022-08-19T02:28:27;31.03;;;28.30;;
791;SDS011;379;49.022;12.148;2022-08-19T02:30:53;32.13;;;29.10;;
791;SDS011;379;49.022;12.148;2022-08-19T02:33:21;30.40;;;27.50;;
791;SDS011;379;49.022;12.148;2022-08-19T02:35:48;31.07;;;28.30;;
791;SDS011;379;49.022;12.148;2022-08-19T02:38:15;30.73;;;27.93;;
791;SDS011;379;49.022;12.148;2022-08-19T02:40:52;31.00;;;27.90;;
791;SDS011;379;49.022;12.148;2022-08-19T02:43:20;30.20;;;27.40;;
791;SDS011;379;49.022;12.148;2022-08-19T02:45:48;30.43;;;27.63;;
791;SDS011;379;49.022;12.148;2022-08-19T02:48:15;30.83;;;28.03;;
791;SDS011;379;49.022;12.148;2022-08-19T02:50:44;30.97;;;28.10;;
791;SDS011;379;49.022;12.148;2022-08-19T02:53:12;29.33;;;26.60;;
791;SDS011;379;49.022;12.148;2022-08-19T02:55:42;29.00;;;26.30;;
791;SDS011;379;49.022;12.148;2022-08-19T02:58:10;28.20;;;25.70;;
791;SDS011;379;49.022;12.148;2022-08-19T03:00:40;29.30;;;26.63;;
791;SDS011;379;49.022;12.148;2022-08-19T03:03:08;28.40;;;25.83;;
791;SDS011;379;49.022;12.148;2022-08-19T03:05:35;27.57;;;24.97;;
791;SDS011;379;49.022;12.148;2022-08-19T03:08:04;28.10;;;25.60;;
791;SDS011;379;49.022;12.148;2022-08-19T03:10:31;29.47;;;26.57;;
791;SDS011;379;49.022;12.148;2022-08-19T03:12:58;28.87;;;26.10;;
791;SDS011;379;49.022;12.148;2022-08-19T03:15:25;29.03;;;26.43;;
791;SDS011;379;49.022;12.148;2022-08-19T03:17:52;26.93;;;24.53;;
791;SDS011;379;49.022;12.148;2022-08-19T03:20:19;28.87;;;26.27;;
791;SDS011;379;49.022;12.148;2022-08-19T03:22:46;27.97;;;25.03;;
791;SDS011;379;49.022;12.148;2022-08-19T03:25:14;28.80;;;26.07;;
791;SDS011;379;49.022;12.148;2022-08-19T03:27:41;27.63;;;25.13;;
791;SDS011;379;49.022;12.148;2022-08-19T03:30:09;26.40;;;24.10;;
791;SDS011;379;49.022;12.148;2022-08-19T03:32:36;26.43;;;24.00;;
791;SDS011;379;49.022;12.148;2022-08-19T03:35:03;24.77;;;22.47;;
791;SDS011;379;49.022;12.148;2022-08-19T03:37:31;24.93;;;22.73;;
791;SDS011;379;49.022;12.148;2022-08-19T03:39:57;23.80;;;21.60;;
791;SDS011;379;49.022;12.148;2022-08-19T03:42:25;24.60;;;22.40;;
791;SDS011;379;49.022;12.148;2022-08-19T03:44:52;23.67;;;21.57;;
791;SDS011;379;49.022;12.148;2022-08-19T03:47:19;23.83;;;21.63;;
791;SDS011;379;49.022;12.148;2022-08-19T03:49:46;23.90;;;21.80;;
791;SDS011;379;49.022;12.148;2022-08-19T03:52:13;22.60;;;20.60;;
791;SDS011;379;49.022;12.148;2022-08-19T03:54:40;23.83;;;21.73;;
791;SDS011;379;49.022;12.148;2022-08-19T03:57:07;24.70;;;22.60;;
791;SDS011;379;49.022;12.148;2022-08-19T03:59:36;22.67;;;20.67;;
791;SDS011;379;49.022;12.148;2022-08-19T04:02:06;21.40;;;19.50;;
791;SDS011;379;49.022;12.148;2022-08-19T04:04:35;25.20;;;23.10;;
791;SDS011;379;49.022;12.148;2022-08-19T04:07:03;23.23;;;21.13;;
791;SDS011;379;49.022;12.148;2022-08-19T04:09:30;23.37;;;21.27;;
791;SDS011;379;49.022;12.148;2022-08-19T04:11:57;22.57;;;20.47;;
791;SDS011;379;49.022;12.148;2022-08-19T04:14:25;23.57;;;21.43;;
791;SDS011;379;49.022;12.148;2022-08-19T04:16:56;24.23;;;21.93;;
791;SDS011;379;49.022;12.148;2022-08-19T04:19:23;22.73;;;20.50;;
791;SDS011;379;49.022;12.148;2022-08-19T04:21:51;24.37;;;22.20;;
791;SDS011;379;49.022;12.148;2022-08-19T04:24:19;23.73;;;21.53;;
791;SDS011;379;49.022;12.148;2022-08-19T04:26:47;23.67;;;21.40;;
791;SDS011;379;49.022;12.148;2022-08-19T04:29:16;24.63;;;22.37;;
791;SDS011;379;49.022;12.148;2022-08-19T04:31:46;23.97;;;21.87;;
791;SDS011;379;49.022;12.148;2022-08-19T04:34:15;22.80;;;20.47;;
791;SDS011;379;49.022;12.148;2022-08-19T04:36:47;24.13;;;22.13;;
791;SDS011;379;49.022;12.148;2022-08-19T04:39:16;24.37;;;22.30;;
791;SDS011;379;49.022;12.148;2022-08-19T04:41:46;22.87;;;20.90;;
791;SDS011;379;49.022;12.148;2022-08-19T04:44:31;21.67;;;19.67;;
791;SDS011;379;49.022;12.148;2022-08-19T04:46:58;20.87;;;19.10;;
791;SDS011;379;49.022;12.148;2022-08-19T04:49:27;21.57;;;19.67;;
791;SDS011;379;49.022;12.148;2022-08-19T04:51:55;21.63;;;19.73;;
791;SDS011;379;49.022;12.148;2022-08-19T04:54:22;21.80;;;19.90;;
791;SDS011;379;49.022;12.148;2022-08-19T04:56:50;21.07;;;19.27;;
791;SDS011;379;49.022;12.148;2022-08-19T04:59:18;21.87;;;19.90;;
791;SDS011;379;49.022;12.148;2022-08-19T05:01:46;20.47;;;18.60;;
791;SDS011;379;49.022;12.148;2022-08-19T05:04:15;19.53;;;17.80;;
791;SDS011;379;49.022;12.148;2022-08-19T05:06:45;20.20;;;18.30;;
791;SDS011;379;49.022;12.148;2022-08-19T05:09:13;20.13;;;18.27;;
791;SDS011;379;49.022;12.148;2022-08-19T05:11:41;20.47;;;18.57;;
791;SDS011;379;49.022;12.148;2022-08-19T05:14:09;20.90;;;19.10;;
791;SDS011;379;49.022;12.148;2022-08-19T05:16:37;21.27;;;19.50;;
791;SDS011;379;49.022;12.148;2022-08-19T05:19:04;21.37;;;19.47;;
791;SDS011;379;49.022;12.148;2022-08-19T05:21:50;20.67;;;18.87;;
791;SDS011;379;49.022;12.148;2022-08-19T05:24:34;20.00;;;18.10;;
791;SDS011;379;49.022;12.148;2022-08-19T05:27:02;20.60;;;18.77;;
791;SDS011;379;49.022;12.148;2022-08-19T05:29:30;20.73;;;18.63;;
791;SDS011;379;49.022;12.148;2022-08-19T05:31:59;20.70;;;18.80;;
791;SDS011;379;49.022;12.148;2022-08-19T05:34:27;21.67;;;19.57;;
791;SDS011;379;49.022;12.148;2022-08-19T05:36:56;20.23;;;18.40;;
791;SDS011;379;49.022;12.148;2022-08-19T05:39:26;19.03;;;17.13;;
791;SDS011;379;49.022;12.148;2022-08-19T05:41:54;21.83;;;19.83;;
791;SDS011;379;49.022;12.148;2022-08-19T05:44:23;19.00;;;17.33;;
791;SDS011;379;49.022;12.148;2022-08-19T05:46:50;20.20;;;18.23;;
791;SDS011;379;49.022;12.148;2022-08-19T05:49:18;22.50;;;20.40;;
791;SDS011;379;49.022;12.148;2022-08-19T05:51:48;20.73;;;18.90;;
791;SDS011;379;49.022;12.148;2022-08-19T05:54:17;19.20;;;17.50;;
791;SDS011;379;49.022;12.148;2022-08-19T05:56:44;22.87;;;20.63;;
791;SDS011;379;49.022;12.148;2022-08-19T05:59:12;21.77;;;19.80;;
791;SDS011;379;49.022;12.148;2022-08-19T06:01:41;20.53;;;18.63;;
791;SDS011;379;49.022;12.148;2022-08-19T06:04:09;21.10;;;19.17;;
791;SDS011;379;49.022;12.148;2022-08-19T06:06:38;21.43;;;19.57;;
791;SDS011;379;49.022;12.148;2022-08-19T06:09:06;21.40;;;19.50;;
791;SDS011;379;49.022;12.148;2022-08-19T06:11:37;23.40;;;21.30;;
791;SDS011;379;49.022;12.148;2022-08-19T06:14:06;22.60;;;20.50;;
791;SDS011;379;49.022;12.148;2022-08-19T06:16:35;21.60;;;19.80;;
791;SDS011;379;49.022;12.148;2022-08-19T06:19:04;20.60;;;18.70;;
791;SDS011;379;49.022;12.148;2022-08-19T06:21:32;22.40;;;20.33;;
791;SDS011;379;49.022;12.148;2022-08-19T06:24:02;20.43;;;18.63;;
791;SDS011;379;49.022;12.148;2022-08-19T06:26:30;23.27;;;21.30;;
791;SDS011;379;49.022;12.148;2022-08-19T06:28:58;22.53;;;20.20;;
791;SDS011;379;49.022;12.148;2022-08-19T06:31:25;21.57;;;19.33;;
791;SDS011;379;49.022;12.148;2022-08-19T06:33:54;21.53;;;19.43;;
791;SDS011;379;49.022;12.148;2022-08-19T06:36:21;22.87;;;20.80;;
791;SDS011;379;49.022;12.148;2022-08-19T06:38:52;23.03;;;20.93;;
791;SDS011;379;49.022;12.148;2022-08-19T06:41:18;21.20;;;19.30;;
791;SDS011;379;49.022;12.148;2022-08-19T06:43:45;21.33;;;19.47;;
791;SDS011;379;49.022;12.148;2022-08-19T06:46:15;20.87;;;19.07;;
791;SDS011;379;49.022;12.148;2022-08-19T06:48:43;20.77;;;18.87;;
791;SDS011;379;49.022;12.148;2022-08-19T06:51:11;20.07;;;18.17;;
791;SDS011;379;49.022;12.148;2022-08-19T06:53:40;21.97;;;19.93;;
791;SDS011;379;49.022;12.148;2022-08-19T06:56:12;20.90;;;19.03;;
791;SDS011;379;49.022;12.148;2022-08-19T06:58:40;19.13;;;17.43;;
791;SDS011;379;49.022;12.148;2022-08-19T07:01:07;18.40;;;16.80;;
791;SDS011;379;49.022;12.148;2022-08-19T07:03:36;18.13;;;16.63;;
791;SDS011;379;49.022;12.148;2022-08-19T07:06:04;18.07;;;16.50;;
791;SDS011;379;49.022;12.148;2022-08-19T07:08:33;18.37;;;16.53;;
791;SDS011;379;49.022;12.148;2022-08-19T07:11:01;18.13;;;16.67;;
791;SDS011;379;49.022;12.148;2022-08-19T07:13:31;19.30;;;17.60;;
791;SDS011;379;49.022;12.148;2022-08-19T07:16:02;18.53;;;16.60;;
791;SDS011;379;49.022;12.148;2022-08-19T07:18:30;16.33;;;14.93;;
791;SDS011;379;49.022;12.148;2022-08-19T07:21:03;17.00;;;15.43;;
791;SDS011;379;49.022;12.148;2022-08-19T07:23:31;16.33;;;14.83;;
791;SDS011;379;49.022;12.148;2022-08-19T07:25:58;13.97;;;12.63;;
791;SDS011;379;49.022;12.148;2022-08-19T07:28:29;15.93;;;14.50;;
791;SDS011;379;49.022;12.148;2022-08-19T07:30:56;16.20;;;14.80;;
791;SDS011;379;49.022;12.148;2022-08-19T07:33:23;16.43;;;15.03;;
791;SDS011;379;49.022;12.148;2022-08-19T07:35:51;17.70;;;16.10;;
791;SDS011;379;49.022;12.148;2022-08-19T07:38:21;16.10;;;14.50;;
791;SDS011;379;49.022;12.148;2022-08-19T07:40:48;19.83;;;18.00;;
791;SDS011;379;49.022;12.148;2022-08-19T07:43:16;17.43;;;15.93;;
791;SDS011;379;49.022;12.148;2022-08-19T07:45:50;16.37;;;14.87;;
791;SDS011;379;49.022;12.148;2022-08-19T07:48:17;18.20;;;16.50;;
791;SDS011;379;49.022;12.148;2022-08-19T07:50:44;20.60;;;18.60;;
791;SDS011;379;49.022;12.148;2022-08-19T07:53:13;19.83;;;18.13;;
791;SDS011;379;49.022;12.148;2022-08-19T07:55:41;18.80;;;16.73;;
791;SDS011;379;49.022;12.148;2022-08-19T07:58:08;18.37;;;16.77;;
791;SDS011;379;49.022;12.148;2022-08-19T08:00:36;17.30;;;15.70;;
791;SDS011;379;49.022;12.148;2022-08-19T08:03:03;17.20;;;15.40;;
791;SDS011;379;49.022;12.148;2022-08-19T08:05:30;17.83;;;16.17;;
791;SDS011;379;49.022;12.148;2022-08-19T08:08:14;17.50;;;15.90;;
791;SDS011;379;49.022;12.148;2022-08-19T08:11:02;18.10;;;16.30;;
791;SDS011;379;49.022;12.148;2022-08-19T08:13:29;16.70;;;15.10;;
791;SDS011;379;49.022;12.148;2022-08-19T08:15:57;16.13;;;14.50;;
791;SDS011;379;49.022;12.148;2022-08-19T08:18:24;15.70;;;14.30;;
791;SDS011;379;49.022;12.148;2022-08-19T08:20:51;15.43;;;14.13;;
791;SDS011;379;49.022;12.148;2022-08-19T08:23:18;15.00;;;13.50;;
791;SDS011;379;49.022;12.148;2022-08-19T08:25:55;15.07;;;13.53;;
791;SDS011;379;49.022;12.148;2022-08-19T08:28:25;15.77;;;14.17;;
791;SDS011;379;49.022;12.148;2022-08-19T08:30:54;14.17;;;12.87;;
791;SDS011;379;49.022;12.148;2022-08-19T08:33:23;14.93;;;13.63;;
791;SDS011;379;49.022;12.148;2022-08-19T08:35:51;14.00;;;12.80;;
791;SDS011;379;49.022;12.148;2022-08-19T08:38:18;13.33;;;12.13;;
791;SDS011;379;49.022;12.148;2022-08-19T08:40:46;14.27;;;13.03;;
791;SDS011;379;49.022;12.148;2022-08-19T08:43:19;10.83;;;9.97;;
791;SDS011;379;49.022;12.148;2022-08-19T08:45:54;12.43;;;11.23;;
791;SDS011;379;49.022;12.148;2022-08-19T08:48:31;11.60;;;10.50;;
791;SDS011;379;49.022;12.148;2022-08-19T08:51:05;11.30;;;10.33;;
791;SDS011;379;49.022;12.148;2022-08-19T08:53:36;8.93;;;8.13;;
791;SDS011;379;49.022;12.148;2022-08-19T08:56:04;11.20;;;10.20;;
791;SDS011;379;49.022;12.148;2022-08-19T08:58:41;9.90;;;9.00;;
791;SDS011;379;49.022;12.148;2022-08-19T09:01:13;10.30;;;9.40;;
791;SDS011;379;49.022;12.148;2022-08-19T09:03:41;9.50;;;8.70;;
791;SDS011;379;49.022;12.148;2022-08-19T09:06:12;10.03;;;9.23;;
791;SDS011;379;49.022;12.148;2022-08-19T09:08:45;9.00;;;8.20;;
791;SDS011;379;49.022;12.148;2022-08-19T09:11:18;8.00;;;7.30;;
791;SDS011;379;49.022;12.148;2022-08-19T09:13:54;9.27;;;8.57;;
791;SDS011;379;49.022;12.148;2022-08-19T09:16:29;10.50;;;9.57;;
791;SDS011;379;49.022;12.148;2022-08-19T09:18:58;9.47;;;8.67;;
791;SDS011;379;49.022;12.148;2022-08-19T09:21:28;10.73;;;9.83;;
791;SDS011;379;49.022;12.148;2022-08-19T09:23:55;10.13;;;9.33;;
791;SDS011;379;49.022;12.148;2022-08-19T09:26:23;10.77;;;9.90;;
791;SDS011;379;49.022;12.148;2022-08-19T09:28:51;12.63;;;11.53;;
791;SDS011;379;49.022;12.148;2022-08-19T09:31:20;12.30;;;11.27;;
791;SDS011;379;49.022;12.148;2022-08-19T09:33:50;12.57;;;11.57;;
791;SDS011;379;49.022;12.148;2022-08-19T09:36:21;11.57;;;10.57;;
791;SDS011;379;49.022;12.148;2022-08-19T09:38:50;12.67;;;11.57;;
791;SDS011;379;49.022;12.148;2022-08-19T09:41:17;11.67;;;10.67;;
791;SDS011;379;49.022;12.148;2022-08-19T09:43:47;11.80;;;10.90;;
791;SDS011;379;49.022;12.148;2022-08-19T09:46:16;12.23;;;11.13;;
791;SDS011;379;49.022;12.148;2022-08-19T09:48:46;11.73;;;10.80;;
791;SDS011;379;49.022;12.148;2022-08-19T09:51:15;10.60;;;9.70;;
791;SDS011;379;49.022;12.148;2022-08-19T09:53:45;11.43;;;10.40;;
791;SDS011;379;49.022;12.148;2022-08-19T09:56:15;10.60;;;9.70;;
791;SDS011;379;49.022;12.148;2022-08-19T09:58:43;11.87;;;10.87;;
791;SDS011;379;49.022;12.148;2022-08-19T10:01:14;10.47;;;9.67;;
791;SDS011;379;49.022;12.148;2022-08-19T10:03:42;11.20;;;10.20;;
791;SDS011;379;49.022;12.148;2022-08-19T10:06:09;10.63;;;9.73;;
791;SDS011;379;49.022;12.148;2022-08-19T10:08:37;11.47;;;10.20;;
791;SDS011;379;49.022;12.148;2022-08-19T10:11:04;11.17;;;10.27;;
791;SDS011;379;49.022;12.148;2022-08-19T10:13:33;11.03;;;10.13;;
791;SDS011;379;49.022;12.148;2022-08-19T10:16:03;10.43;;;9.43;;
791;SDS011;379;49.022;12.148;2022-08-19T10:18:31;11.60;;;10.40;;
791;SDS011;379;49.022;12.148;2022-08-19T10:21:04;10.80;;;9.80;;
791;SDS011;379;49.022;12.148;2022-08-19T10:23:37;11.50;;;10.60;;
791;SDS011;379;49.022;12.148;2022-08-19T10:26:06;10.97;;;10.07;;
791;SDS011;379;49.022;12.148;2022-08-19T10:28:33;10.53;;;9.63;;
791;SDS011;379;49.022;12.148;2022-08-19T10:31:03;11.23;;;10.33;;
791;SDS011;379;49.022;12.148;2022-08-19T10:33:31;10.17;;;9.27;;
791;SDS011;379;49.022;12.148;2022-08-19T10:35:59;12.80;;;9.57;;
791;SDS011;379;49.022;12.148;2022-08-19T10:38:27;9.33;;;8.53;;
791;SDS011;379;49.022;12.148;2022-08-19T10:40:56;9.33;;;8.60;;
791;SDS011;379;49.022;12.148;2022-08-19T10:43:22;9.43;;;8.57;;
791;SDS011;379;49.022;12.148;2022-08-19T10:45:51;9.77;;;8.97;;
791;SDS011;379;49.022;12.148;2022-08-19T10:48:19;10.10;;;9.20;;
791;SDS011;379;49.022;12.148;2022-08-19T10:50:46;9.03;;;8.23;;
791;SDS011;379;49.022;12.148;2022-08-19T10:53:31;10.20;;;9.33;;
791;SDS011;379;49.022;12.148;2022-08-19T10:55:59;9.87;;;9.07;;
791;SDS011;379;49.022;12.148;2022-08-19T10:58:43;10.33;;;9.43;;
791;SDS011;379;49.022;12.148;2022-08-19T11:01:10;9.97;;;9.07;;
791;SDS011;379;49.022;12.148;2022-08-19T11:03:37;9.70;;;8.80;;
791;SDS011;379;49.022;12.148;2022-08-19T11:06:04;10.83;;;9.93;;
791;SDS011;379;49.022;12.148;2022-08-19T11:08:33;10.37;;;9.57;;
791;SDS011;379;49.022;12.148;2022-08-19T11:11:04;11.33;;;10.20;;
791;SDS011;379;49.022;12.148;2022-08-19T11:13:34;10.13;;;9.33;;
791;SDS011;379;49.022;12.148;2022-08-19T11:16:03;11.57;;;10.47;;
791;SDS011;379;49.022;12.148;2022-08-19T11:18:33;11.40;;;10.50;;
791;SDS011;379;49.022;12.148;2022-08-19T11:21:11;11.27;;;10.17;;
791;SDS011;379;49.022;12.148;2022-08-19T11:23:39;12.23;;;11.23;;
791;SDS011;379;49.022;12.148;2022-08-19T11:26:08;12.73;;;11.53;;
791;SDS011;379;49.022;12.148;2022-08-19T11:28:35;15.03;;;13.83;;
791;SDS011;379;49.022;12.148;2022-08-19T11:31:02;15.60;;;14.33;;
791;SDS011;379;49.022;12.148;2022-08-19T11:33:29;17.07;;;15.67;;
791;SDS011;379;49.022;12.148;2022-08-19T11:35:56;19.00;;;17.30;;
791;SDS011;379;49.022;12.148;2022-08-19T11:38:24;20.87;;;18.70;;
791;SDS011;379;49.022;12.148;2022-08-19T11:40:55;24.23;;;21.90;;
791;SDS011;379;49.022;12.148;2022-08-19T11:43:24;28.77;;;22.90;;
791;SDS011;379;49.022;12.148;2022-08-19T11:45:51;27.53;;;23.10;;
791;SDS011;379;49.022;12.148;2022-08-19T11:48:18;23.63;;;21.10;;
791;SDS011;379;49.022;12.148;2022-08-19T11:50:46;25.63;;;23.07;;
791;SDS011;379;49.022;12.148;2022-08-19T11:53:13;25.47;;;22.87;;
791;SDS011;379;49.022;12.148;2022-08-19T11:55:40;26.57;;;23.80;;
791;SDS011;379;49.022;12.148;2022-08-19T11:58:08;38.03;;;26.27;;
791;SDS011;379;49.022;12.148;2022-08-19T12:00:36;33.90;;;22.80;;
791;SDS011;379;49.022;12.148;2022-08-19T12:03:04;43.70;;;25.30;;
791;SDS011;379;49.022;12.148;2022-08-19T12:05:31;46.80;;;26.80;;
791;SDS011;379;49.022;12.148;2022-08-19T12:07:58;57.53;;;28.23;;
791;SDS011;379;49.022;12.148;2022-08-19T12:10:25;52.53;;;28.57;;
791;SDS011;379;49.022;12.148;2022-08-19T12:12:51;40.50;;;29.37;;
791;SDS011;379;49.022;12.148;2022-08-19T12:15:18;60.53;;;35.97;;
791;SDS011;379;49.022;12.148;2022-08-19T12:17:46;52.63;;;36.47;;
791;SDS011;379;49.022;12.148;2022-08-19T12:20:13;50.13;;;35.03;;
791;SDS011;379;49.022;12.148;2022-08-19T12:22:42;47.50;;;32.73;;
791;SDS011;379;49.022;12.148;2022-08-19T12:25:09;43.00;;;30.80;;
791;SDS011;379;49.022;12.148;2022-08-19T12:27:37;44.47;;;34.90;;
791;SDS011;379;49.022;12.148;2022-08-19T12:30:04;60.50;;;40.17;;
791;SDS011;379;49.022;12.148;2022-08-19T12:32:32;54.80;;;38.20;;
791;SDS011;379;49.022;12.148;2022-08-19T12:35:01;44.00;;;31.03;;
791;SDS011;379;49.022;12.148;2022-08-19T12:37:27;41.30;;;29.27;;
791;SDS011;379;49.022;12.148;2022-08-19T12:39:56;41.90;;;32.00;;
791;SDS011;379;49.022;12.148;2022-08-19T12:42:23;40.40;;;30.87;;
791;SDS011;379;49.022;12.148;2022-08-19T12:44:50;31.03;;;27.17;;
791;SDS011;379;49.022;12.148;2022-08-19T12:47:17;29.23;;;25.70;;
791;SDS011;379;49.022;12.148;2022-08-19T12:49:45;25.40;;;22.80;;
791;SDS011;379;49.022;12.148;2022-08-19T12:52:13;23.70;;;21.33;;
791;SDS011;379;49.022;12.148;2022-08-19T12:54:41;22.47;;;20.23;;
791;SDS011;379;49.022;12.148;2022-08-19T12:57:09;22.83;;;20.60;;
791;SDS011;379;49.022;12.148;2022-08-19T12:59:37;22.73;;;20.40;;
791;SDS011;379;49.022;12.148;2022-08-19T13:02:04;20.97;;;18.97;;
791;SDS011;379;49.022;12.148;2022-08-19T13:04:33;20.90;;;18.97;;
791;SDS011;379;49.022;12.148;2022-08-19T13:07:02;20.27;;;18.27;;
791;SDS011;379;49.022;12.148;2022-08-19T13:09:31;21.10;;;19.10;;
791;SDS011;379;49.022;12.148;2022-08-19T13:11:57;22.53;;;20.40;;
791;SDS011;379;49.022;12.148;2022-08-19T13:14:27;20.93;;;19.03;;
791;SDS011;379;49.022;12.148;2022-08-19T13:16:56;21.60;;;19.60;;
791;SDS011;379;49.022;12.148;2022-08-19T13:19:23;24.87;;;22.27;;
791;SDS011;379;49.022;12.148;2022-08-19T13:21:51;24.10;;;21.70;;
791;SDS011;379;49.022;12.148;2022-08-19T13:24:20;24.77;;;20.73;;
791;SDS011;379;49.022;12.148;2022-08-19T13:26:48;25.03;;;22.40;;
791;SDS011;379;49.022;12.148;2022-08-19T13:29:15;22.87;;;20.67;;
791;SDS011;379;49.022;12.148;2022-08-19T13:31:59;27.03;;;23.30;;
791;SDS011;379;49.022;12.148;2022-08-19T13:34:43;23.37;;;21.07;;
791;SDS011;379;49.022;12.148;2022-08-19T13:37:11;27.33;;;23.93;;
791;SDS011;379;49.022;12.148;2022-08-19T13:39:38;27.63;;;24.73;;
791;SDS011;379;49.022;12.148;2022-08-19T13:42:07;33.77;;;27.10;;
791;SDS011;379;49.022;12.148;2022-08-19T13:44:35;27.50;;;24.70;;
791;SDS011;379;49.022;12.148;2022-08-19T13:47:02;27.80;;;25.13;;
791;SDS011;379;49.022;12.148;2022-08-19T13:49:31;25.67;;;23.20;;
791;SDS011;379;49.022;12.148;2022-08-19T13:51:58;25.40;;;22.80;;
791;SDS011;379;49.022;12.148;2022-08-19T13:54:25;21.13;;;19.20;;
791;SDS011;379;49.022;12.148;2022-08-19T13:56:52;21.40;;;19.50;;
791;SDS011;379;49.022;12.148;2022-08-19T13:59:21;21.23;;;19.23;;
791;SDS011;379;49.022;12.148;2022-08-19T14:01:47;19.30;;;17.60;;
791;SDS011;379;49.022;12.148;2022-08-19T14:04:14;19.53;;;17.83;;
791;SDS011;379;49.022;12.148;2022-08-19T14:06:41;20.20;;;18.30;;
791;SDS011;379;49.022;12.148;2022-08-19T14:09:08;20.27;;;18.50;;
791;SDS011;379;49.022;12.148;2022-08-19T14:11:35;20.50;;;18.60;;
791;SDS011;379;49.022;12.148;2022-08-19T14:14:02;19.43;;;17.73;;
791;SDS011;379;49.022;12.148;2022-08-19T14:16:30;20.07;;;18.10;;
791;SDS011;379;49.022;12.148;2022-08-19T14:18:57;19.30;;;17.50;;
791;SDS011;379;49.022;12.148;2022-08-19T14:21:24;21.27;;;19.27;;
791;SDS011;379;49.022;12.148;2022-08-19T14:23:51;20.43;;;18.43;;
791;SDS011;379;49.022;12.148;2022-08-19T14:26:19;19.97;;;18.17;;
791;SDS011;379;49.022;12.148;2022-08-19T14:28:46;18.87;;;17.10;;
791;SDS011;379;49.022;12.148;2022-08-19T14:31:14;21.57;;;19.57;;
791;SDS011;379;49.022;12.148;2022-08-19T14:33:45;19.60;;;17.80;;
791;SDS011;379;49.022;12.148;2022-08-19T14:36:12;21.00;;;18.77;;
791;SDS011;379;49.022;12.148;2022-08-19T14:38:39;20.07;;;18.27;;
791;SDS011;379;49.022;12.148;2022-08-19T14:41:10;18.63;;;17.03;;
791;SDS011;379;49.022;12.148;2022-08-19T14:43:38;19.13;;;17.43;;
791;SDS011;379;49.022;12.148;2022-08-19T14:46:05;19.67;;;17.87;;
791;SDS011;379;49.022;12.148;2022-08-19T14:48:32;18.20;;;16.70;;
791;SDS011;379;49.022;12.148;2022-08-19T14:51:02;16.00;;;14.50;;
791;SDS011;379;49.022;12.148;2022-08-19T14:53:29;16.77;;;14.07;;
791;SDS011;379;49.022;12.148;2022-08-19T14:55:56;14.30;;;13.10;;
791;SDS011;379;49.022;12.148;2022-08-19T14:58:22;14.57;;;13.37;;
791;SDS011;379;49.022;12.148;2022-08-19T15:00:49;15.17;;;13.80;;
791;SDS011;379;49.022;12.148;2022-08-19T15:03:16;14.10;;;12.80;;
791;SDS011;379;49.022;12.148;2022-08-19T15:05:42;12.20;;;11.10;;
791;SDS011;379;49.022;12.148;2022-08-19T15:08:11;13.10;;;11.80;;
791;SDS011;379;49.022;12.148;2022-08-19T15:10:37;13.63;;;12.33;;
791;SDS011;379;49.022;12.148;2022-08-19T15:13:05;12.50;;;11.40;;